Time;durP1;ratioP1;P1;durP2;ratioP2;P2;SDS_P1;SDS_P2;PMS_P1;PMS_P2;Temp;Humidity;BMP_temperature;BMP_pressure;BME280_temperature;BME280_humidity;BME280_pressure;Samples;Min_cycle;Max_cycle;Signal;HPM_P1;HPM_P2
2021/06/25 00:02:18;;;;;;;5.57;3.15;;;;;;;;;;5081795;28;20041;-58
2021/06/25 00:04:47;;;;;;;5.93;3.20;;;;;;;;;;5059369;28;20049;-58
2021/06/25 00:07:13;;;;;;;5.47;3.15;;;;;;;;;;5064995;28;20048;-58
2021/06/25 00:09:40;;;;;;;6.13;3.22;;;;;;;;;;5076373;28;20040;-58
2021/06/25 00:12:11;;;;;;;7.38;3.25;;;;;;;;;;5061885;28;20041;-57
2021/06/25 00:14:38;;;;;;;6.57;3.38;;;;;;;;;;5057210;28;20048;-58
2021/06/25 00:17:05;;;;;;;10.00;3.35;;;;;;;;;;5078786;28;20048;-57
2021/06/25 00:19:31;;;;;;;8.80;3.63;;;;;;;;;;5075975;28;20055;-58
2021/06/25 00:21:58;;;;;;;6.50;3.65;;;;;;;;;;5079592;28;20040;-57
2021/06/25 00:24:25;;;;;;;6.97;3.58;;;;;;;;;;5075399;28;20154;-58
2021/06/25 00:26:51;;;;;;;6.03;3.63;;;;;;;;;;5061514;28;20037;-58
2021/06/25 00:29:19;;;;;;;6.25;3.40;;;;;;;;;;5059479;28;20063;-58
2021/06/25 00:31:46;;;;;;;9.98;4.03;;;;;;;;;;5079213;28;20040;-58
2021/06/25 00:34:14;;;;;;;7.15;3.83;;;;;;;;;;5075400;28;20072;-58
2021/06/25 00:36:41;;;;;;;8.05;4.28;;;;;;;;;;5079543;28;20036;-57
2021/06/25 00:39:07;;;;;;;9.25;4.90;;;;;;;;;;5075662;28;20057;-58
2021/06/25 00:41:36;;;;;;;9.50;5.47;;;;;;;;;;5057377;28;20041;-58
2021/06/25 00:44:02;;;;;;;;;;;;;;;;;;5028588;28;20046;-57
2021/06/25 00:46:31;;;;;;;10.90;3.97;;;;;;;;;;5035615;28;19975;-58
2021/06/25 00:48:57;;;;;;;;;;;;;;;;;;5043252;28;20041;-58
2021/06/25 00:51:24;;;;;;;6.85;3.90;;;;;;;;;;5040166;28;19921;-58
2021/06/25 00:53:51;;;;;;;8.15;4.68;;;;;;;;;;5044434;28;20041;-58
2021/06/25 00:56:18;;;;;;;7.32;4.38;;;;;;;;;;5068598;28;20036;-57
2021/06/25 00:58:44;;;;;;;9.30;5.00;;;;;;;;;;5063051;28;20037;-58
2021/06/25 01:01:11;;;;;;;10.40;5.28;;;;;;;;;;5060055;28;20040;-58
2021/06/25 01:03:41;;;;;;;9.70;5.38;;;;;;;;;;5078639;28;20113;-59
2021/06/25 01:06:08;;;;;;;15.13;6.32;;;;;;;;;;5075110;28;20047;-57
2021/06/25 01:08:35;;;;;;;11.77;5.70;;;;;;;;;;5070418;28;20039;-58
2021/06/25 01:11:01;;;;;;;9.95;6.15;;;;;;;;;;5065668;28;20059;-59
2021/06/25 01:13:28;;;;;;;15.35;6.10;;;;;;;;;;5064953;28;20045;-58
2021/06/25 01:15:54;;;;;;;10.98;5.80;;;;;;;;;;5059108;28;20041;-59
2021/06/25 01:18:21;;;;;;;12.05;6.53;;;;;;;;;;5076859;28;20041;-58
2021/06/25 01:20:49;;;;;;;15.55;6.90;;;;;;;;;;5076863;28;20109;-58
2021/06/25 01:23:17;;;;;;;11.35;6.38;;;;;;;;;;5040259;28;20145;-58
2021/06/25 01:25:44;;;;;;;;;;;;;;;;;;5038161;28;20052;-59
2021/06/25 01:28:12;;;;;;;9.65;5.60;;;;;;;;;;5036249;28;19929;-58
2021/06/25 01:30:41;;;;;;;13.90;7.00;;;;;;;;;;5033431;28;20111;-59
2021/06/25 01:33:10;;;;;;;13.70;7.20;;;;;;;;;;5038774;28;20048;-59
2021/06/25 01:35:36;;;;;;;;;;;;;;;;;;5043590;28;20041;-58
2021/06/25 01:38:06;;;;;;;10.63;6.28;;;;;;;;;;5023918;28;19941;-59
2021/06/25 01:40:36;;;;;;;12.98;6.97;;;;;;;;;;5021316;28;20054;-59
2021/06/25 01:43:03;;;;;;;10.63;6.50;;;;;;;;;;5022635;28;20066;-59
2021/06/25 01:45:30;;;;;;;20.67;7.82;;;;;;;;;;5077282;28;20078;-58
2021/06/25 01:47:56;;;;;;;12.48;6.90;;;;;;;;;;5072994;28;20114;-58
2021/06/25 01:50:24;;;;;;;13.20;7.15;;;;;;;;;;5041577;28;20167;-59
2021/06/25 01:52:52;;;;;;;13.50;7.25;;;;;;;;;;5036705;28;20061;-59
2021/06/25 01:55:19;;;;;;;10.95;6.32;;;;;;;;;;5058211;28;20044;-58
2021/06/25 01:57:47;;;;;;;11.85;6.60;;;;;;;;;;5029094;28;20163;-58
2021/06/25 02:00:14;;;;;;;14.10;7.68;;;;;;;;;;5040656;28;20093;-58
2021/06/25 02:02:41;;;;;;;14.75;6.93;;;;;;;;;;5020622;28;20049;-58
2021/06/25 02:05:08;;;;;;;13.75;7.03;;;;;;;;;;5029572;28;20094;-58
2021/06/25 02:07:35;;;;;;;15.40;6.97;;;;;;;;;;5075544;28;20036;-59
2021/06/25 02:22:44;;;;;;;10.50;6.13;;;;;;;;;;5035839;28;20057;-58
2021/06/25 02:25:13;;;;;;;11.98;7.03;;;;;;;;;;5025434;28;20083;-59
2021/06/25 02:27:39;;;;;;;11.70;6.32;;;;;;;;;;5039575;28;20038;-57
2021/06/25 02:30:07;;;;;;;10.90;6.57;;;;;;;;;;5033480;28;20042;-58
2021/06/25 02:32:33;;;;;;;11.38;6.53;;;;;;;;;;5038910;28;20034;-58
2021/06/25 02:35:00;;;;;;;14.43;6.55;;;;;;;;;;5035771;28;20049;-56
2021/06/25 02:37:27;;;;;;;9.85;6.10;;;;;;;;;;5022924;28;20052;-57
2021/06/25 02:39:53;;;;;;;10.90;6.38;;;;;;;;;;5041869;28;20048;-58
2021/06/25 02:42:21;;;;;;;10.50;6.22;;;;;;;;;;5042016;28;20052;-56
2021/06/25 02:44:48;;;;;;;10.60;6.27;;;;;;;;;;5031407;28;20053;-57
2021/06/25 02:47:14;;;;;;;13.80;6.32;;;;;;;;;;5023613;28;20045;-57
2021/06/25 02:49:40;;;;;;;13.38;6.38;;;;;;;;;;5019012;28;20041;-58
2021/06/25 02:52:07;;;;;;;10.80;6.30;;;;;;;;;;5020419;28;20043;-57
2021/06/25 02:54:35;;;;;;;10.38;5.60;;;;;;;;;;5020509;28;20140;-58
2021/06/25 02:57:02;;;;;;;9.77;5.70;;;;;;;;;;5040436;28;20025;-54
2021/06/25 02:59:31;;;;;;;10.73;6.07;;;;;;;;;;5041211;28;20063;-58
2021/06/25 03:01:58;;;;;;;10.00;6.38;;;;;;;;;;5013718;28;20037;-58
2021/06/25 03:04:25;;;;;;;11.95;6.50;;;;;;;;;;5037365;28;20319;-59
2021/06/25 03:06:51;;;;;;;10.65;6.05;;;;;;;;;;5055139;28;20025;-58
2021/06/25 03:09:18;;;;;;;11.70;6.00;;;;;;;;;;5054244;28;20039;-58
2021/06/25 03:11:44;;;;;;;12.60;6.60;;;;;;;;;;5018146;28;20045;-58
2021/06/25 03:14:11;;;;;;;11.93;6.15;;;;;;;;;;5021564;28;20030;-58
2021/06/25 03:16:39;;;;;;;12.82;6.80;;;;;;;;;;5012797;28;20053;-58
2021/06/25 03:19:06;;;;;;;11.70;6.57;;;;;;;;;;5037300;28;20033;-58
2021/06/25 03:21:32;;;;;;;13.30;7.28;;;;;;;;;;5036709;28;20103;-58
2021/06/25 03:23:58;;;;;;;13.18;7.00;;;;;;;;;;5041931;28;20037;-57
2021/06/25 03:26:25;;;;;;;15.80;7.28;;;;;;;;;;5053553;28;20447;-58
2021/06/25 03:28:51;;;;;;;14.30;7.60;;;;;;;;;;5059399;28;20040;-58
2021/06/25 03:31:18;;;;;;;12.98;7.07;;;;;;;;;;5055020;28;20118;-58
2021/06/25 03:33:46;;;;;;;16.08;7.88;;;;;;;;;;5040742;28;20033;-58
2021/06/25 03:36:12;;;;;;;14.13;7.68;;;;;;;;;;5038326;28;20045;-58
2021/06/25 03:38:39;;;;;;;17.35;8.18;;;;;;;;;;5040933;28;20048;-57
2021/06/25 03:41:05;;;;;;;16.23;8.05;;;;;;;;;;5039279;28;20127;-56
2021/06/25 03:43:32;;;;;;;16.17;8.52;;;;;;;;;;5039110;28;20033;-57
2021/06/25 03:45:58;;;;;;;19.05;9.10;;;;;;;;;;5040934;28;20053;-58
2021/06/25 03:48:25;;;;;;;20.60;9.23;;;;;;;;;;5035872;28;20048;-57
2021/06/25 03:50:53;;;;;;;17.27;9.32;;;;;;;;;;5040676;28;20164;-57
2021/06/25 03:53:20;;;;;;;16.67;9.23;;;;;;;;;;5047244;28;20040;-57
2021/06/25 03:58:30;;;;;;;18.30;10.05;;;;;;;;;;5035999;28;20073;-57
2021/06/25 04:00:56;;;;;;;17.98;10.18;;;;;;;;;;5046783;28;20045;-58
2021/06/25 04:03:23;;;;;;;17.75;9.48;;;;;;;;;;5056396;28;20114;-58
2021/06/25 04:05:49;;;;;;;19.40;9.88;;;;;;;;;;5059612;28;20055;-56
2021/06/25 04:08:18;;;;;;;21.65;10.85;;;;;;;;;;5057454;28;20041;-57
2021/06/25 04:10:44;;;;;;;19.35;10.55;;;;;;;;;;5059102;28;20041;-57
2021/06/25 04:13:14;;;;;;;20.00;10.77;;;;;;;;;;5050992;28;20041;-57
2021/06/25 04:15:41;;;;;;;23.45;10.48;;;;;;;;;;5039433;28;20045;-57
2021/06/25 04:18:07;;;;;;;19.67;10.35;;;;;;;;;;5040822;28;20036;-57
2021/06/25 04:20:34;;;;;;;22.00;11.27;;;;;;;;;;5060635;28;20040;-58
2021/06/25 04:23:00;;;;;;;21.48;10.82;;;;;;;;;;5056829;28;20229;-57
2021/06/25 04:25:28;;;;;;;21.70;10.55;;;;;;;;;;5046680;28;20044;-57
2021/06/25 04:27:55;;;;;;;17.97;9.43;;;;;;;;;;5043160;28;20060;-53
2021/06/25 04:30:22;;;;;;;23.70;9.85;;;;;;;;;;5038679;28;20052;-58
2021/06/25 04:32:49;;;;;;;22.00;11.15;;;;;;;;;;5043991;28;20062;-58
2021/06/25 04:35:15;;;;;;;19.73;10.07;;;;;;;;;;5038225;28;20041;-57
2021/06/25 04:37:41;;;;;;;20.52;9.98;;;;;;;;;;5061712;28;20094;-58
2021/06/25 04:40:09;;;;;;;24.63;11.32;;;;;;;;;;5031505;28;20033;-58
2021/06/25 04:42:36;;;;;;;24.25;10.98;;;;;;;;;;5029258;28;20049;-58
2021/06/25 04:45:03;;;;;;;28.50;12.90;;;;;;;;;;5029253;28;20053;-58
2021/06/25 04:47:29;;;;;;;23.50;12.23;;;;;;;;;;5042417;28;20040;-58
2021/06/25 04:49:56;;;;;;;23.30;11.65;;;;;;;;;;5048484;28;20040;-58
2021/06/25 04:52:22;;;;;;;22.00;11.88;;;;;;;;;;5046563;28;20033;-57
2021/06/25 04:54:50;;;;;;;26.10;12.13;;;;;;;;;;5037764;28;20041;-58
2021/06/25 04:57:17;;;;;;;26.23;12.32;;;;;;;;;;5033116;28;20041;-58
2021/06/25 04:59:45;;;;;;;21.63;11.55;;;;;;;;;;5039376;28;20037;-58
2021/06/25 05:02:12;;;;;;;22.30;11.27;;;;;;;;;;5039955;28;20098;-59
2021/06/25 05:04:39;;;;;;;21.88;10.80;;;;;;;;;;5048294;28;20041;-58
2021/06/25 05:07:08;;;;;;;24.83;12.00;;;;;;;;;;5047953;28;20036;-58
2021/06/25 05:09:35;;;;;;;28.02;12.55;;;;;;;;;;5082635;28;20066;-58
2021/06/25 05:12:01;;;;;;;21.88;10.40;;;;;;;;;;5059562;28;20125;-57
2021/06/25 05:14:29;;;;;;;24.90;11.23;;;;;;;;;;5063971;28;20055;-58
2021/06/25 05:16:57;;;;;;;25.30;12.60;;;;;;;;;;5059915;28;20083;-58
2021/06/25 05:19:23;;;;;;;20.97;10.63;;;;;;;;;;5081423;28;20043;-58
2021/06/25 05:21:49;;;;;;;23.92;12.20;;;;;;;;;;5061366;28;20044;-58
2021/06/25 05:24:16;;;;;;;24.27;11.13;;;;;;;;;;5063980;28;20047;-58
2021/06/25 05:26:42;;;;;;;20.20;10.70;;;;;;;;;;5061522;28;20059;-58
2021/06/25 05:29:09;;;;;;;23.70;11.52;;;;;;;;;;5065401;28;20056;-58
2021/06/25 05:31:35;;;;;;;21.98;11.10;;;;;;;;;;5057706;28;20094;-58
2021/06/25 05:34:03;;;;;;;22.50;11.15;;;;;;;;;;5065283;28;20055;-58
2021/06/25 05:36:30;;;;;;;22.58;10.63;;;;;;;;;;5077825;28;20056;-58
2021/06/25 05:38:59;;;;;;;17.98;9.63;;;;;;;;;;5063143;28;20036;-58
2021/06/25 05:41:26;;;;;;;19.13;9.90;;;;;;;;;;5059295;28;20048;-58
2021/06/25 05:43:53;;;;;;;17.40;8.30;;;;;;;;;;5062697;28;20036;-56
2021/06/25 05:46:20;;;;;;;21.90;9.23;;;;;;;;;;5066122;28;20028;-59
2021/06/25 05:48:46;;;;;;;15.32;7.97;;;;;;;;;;5080830;28;20043;-58
2021/06/25 05:51:14;;;;;;;18.25;8.32;;;;;;;;;;5060755;28;20043;-58
2021/06/25 05:53:41;;;;;;;14.73;6.80;;;;;;;;;;5057630;28;20060;-58
2021/06/25 05:56:08;;;;;;;13.13;6.72;;;;;;;;;;5064651;28;20036;-57
2021/06/25 05:58:34;;;;;;;19.63;8.20;;;;;;;;;;5061259;28;20048;-58
2021/06/25 06:01:01;;;;;;;18.02;8.57;;;;;;;;;;5061950;28;20113;-58
2021/06/25 06:03:28;;;;;;;16.95;7.55;;;;;;;;;;5031568;28;20056;-58
2021/06/25 06:05:55;;;;;;;18.48;7.65;;;;;;;;;;5064971;28;20149;-58
2021/06/25 06:08:23;;;;;;;17.17;8.20;;;;;;;;;;5079731;28;20059;-58
2021/06/25 06:10:49;;;;;;;17.60;8.50;;;;;;;;;;5065365;28;20044;-59
2021/06/25 06:13:16;;;;;;;21.23;7.72;;;;;;;;;;5079316;28;20050;-59
2021/06/25 06:15:43;;;;;;;16.77;8.30;;;;;;;;;;5068078;28;20041;-59
2021/06/25 06:18:12;;;;;;;15.88;7.85;;;;;;;;;;5061474;28;20052;-58
2021/06/25 06:20:39;;;;;;;16.77;8.23;;;;;;;;;;5064977;28;20032;-58
2021/06/25 06:31:30;;;;;;;18.77;9.10;;;;;;;;;;5062918;28;20036;-58
2021/06/25 06:33:57;;;;;;;24.48;10.27;;;;;;;;;;5060895;28;20040;-59
2021/06/25 06:36:26;;;;;;;20.58;10.13;;;;;;;;;;5064430;28;20060;-58
2021/06/25 06:38:53;;;;;;;25.92;11.07;;;;;;;;;;5055127;28;20050;-58
2021/06/25 06:41:21;;;;;;;21.45;11.27;;;;;;;;;;5043453;28;20043;-59
2021/06/25 06:43:49;;;;;;;24.15;10.93;;;;;;;;;;5043841;28;20113;-59
2021/06/25 06:46:16;;;;;;;;;;;;;;;;;;5064943;28;20044;-59
2021/06/25 06:48:43;;;;;;;22.30;10.95;;;;;;;;;;5059399;28;19997;-59
2021/06/25 06:51:13;;;;;;;21.37;10.87;;;;;;;;;;5062489;28;20166;-59
2021/06/25 06:53:43;;;;;;;25.02;10.30;;;;;;;;;;5055896;28;20055;-58
2021/06/25 06:56:11;;;;;;;28.13;12.45;;;;;;;;;;5059669;28;20056;-59
2021/06/25 06:58:39;;;;;;;24.83;11.40;;;;;;;;;;5082093;28;20056;-58
2021/06/25 07:01:06;;;;;;;25.23;12.13;;;;;;;;;;5043907;28;20056;-58
2021/06/25 07:03:33;;;;;;;26.65;12.32;;;;;;;;;;5044451;28;20076;-57
2021/06/25 07:05:59;;;;;;;25.25;11.95;;;;;;;;;;5054903;28;20040;-59
2021/06/25 07:08:26;;;;;;;25.30;11.85;;;;;;;;;;5063178;28;20073;-59
2021/06/25 07:10:52;;;;;;;23.88;11.15;;;;;;;;;;5057276;28;20051;-58
2021/06/25 07:13:19;;;;;;;27.55;11.77;;;;;;;;;;5061193;28;20047;-59
2021/06/25 07:15:47;;;;;;;28.33;12.55;;;;;;;;;;5059746;28;20060;-59
2021/06/25 07:18:14;;;;;;;27.02;12.57;;;;;;;;;;5059157;28;20048;-59
2021/06/25 07:20:41;;;;;;;28.05;12.50;;;;;;;;;;5059581;28;20048;-59
2021/06/25 07:23:07;;;;;;;23.98;12.10;;;;;;;;;;5063245;28;20133;-58
2021/06/25 07:25:34;;;;;;;24.00;12.50;;;;;;;;;;5047956;28;20040;-58
2021/06/25 07:28:01;;;;;;;27.48;13.25;;;;;;;;;;5044229;28;20070;-59
2021/06/25 07:30:27;;;;;;;24.42;12.80;;;;;;;;;;5058754;28;20037;-59
2021/06/25 07:32:55;;;;;;;34.30;13.27;;;;;;;;;;5063339;28;20051;-58
2021/06/25 07:35:22;;;;;;;27.05;13.07;;;;;;;;;;5063011;28;20032;-59
2021/06/25 07:37:49;;;;;;;27.85;14.13;;;;;;;;;;5060301;28;20170;-59
2021/06/25 07:40:15;;;;;;;27.35;13.45;;;;;;;;;;5065147;28;20121;-58
2021/06/25 07:42:42;;;;;;;35.67;14.60;;;;;;;;;;5058554;28;20041;-59
2021/06/25 07:45:10;;;;;;;31.30;13.82;;;;;;;;;;5061133;28;20029;-58
2021/06/25 07:47:36;;;;;;;33.40;15.40;;;;;;;;;;5061138;28;20025;-58
2021/06/25 07:50:06;;;;;;;27.88;13.20;;;;;;;;;;5061236;28;20041;-58
2021/06/25 07:52:32;;;;;;;31.80;15.13;;;;;;;;;;5033187;28;20055;-59
2021/06/25 07:54:59;;;;;;;28.02;14.40;;;;;;;;;;5058041;28;20037;-58
2021/06/25 07:57:26;;;;;;;30.42;15.07;;;;;;;;;;5042220;28;20036;-59
2021/06/25 07:59:52;;;;;;;32.70;15.15;;;;;;;;;;5040163;28;20070;-59
2021/06/25 08:02:19;;;;;;;31.33;14.38;;;;;;;;;;5025277;28;20036;-58
2021/06/25 08:04:46;;;;;;;30.98;13.77;;;;;;;;;;5044252;28;20057;-59
2021/06/25 08:07:14;;;;;;;32.47;14.47;;;;;;;;;;5040901;28;20060;-59
2021/06/25 08:09:41;;;;;;;28.70;14.50;;;;;;;;;;5041661;28;20333;-59
2021/06/25 08:12:08;;;;;;;31.00;15.25;;;;;;;;;;5054372;28;20028;-59
2021/06/25 08:14:35;;;;;;;36.78;15.13;;;;;;;;;;5049977;28;20039;-59
2021/06/25 08:17:02;;;;;;;34.72;14.75;;;;;;;;;;5064886;28;20032;-59
2021/06/25 08:19:29;;;;;;;34.65;16.20;;;;;;;;;;5060633;28;20044;-59
2021/06/25 08:21:56;;;;;;;39.58;15.55;;;;;;;;;;5044385;28;20063;-59
2021/06/25 08:24:23;;;;;;;36.55;16.20;;;;;;;;;;5043292;28;20091;-59
2021/06/25 08:26:50;;;;;;;25.90;13.47;;;;;;;;;;5045919;28;20094;-59
2021/06/25 08:29:17;;;;;;;32.13;15.75;;;;;;;;;;5041440;28;20056;-59
2021/06/25 08:31:44;;;;;;;30.63;14.32;;;;;;;;;;5062692;28;20036;-59
2021/06/25 08:34:13;;;;;;;37.22;15.68;;;;;;;;;;5075027;28;20055;-59
2021/06/25 08:36:40;;;;;;;34.95;16.20;;;;;;;;;;5061680;28;20056;-58
2021/06/25 08:39:07;;;;;;;34.45;17.10;;;;;;;;;;5057687;28;20041;-59
2021/06/25 08:41:36;;;;;;;31.60;16.00;;;;;;;;;;5063287;28;20045;-59
2021/06/25 08:44:03;;;;;;;30.10;14.85;;;;;;;;;;5059137;28;20037;-59
2021/06/25 08:46:31;;;;;;;36.78;16.63;;;;;;;;;;5062096;28;20048;-59
2021/06/25 08:48:58;;;;;;;31.23;16.08;;;;;;;;;;5061208;28;20045;-58
2021/06/25 08:51:26;;;;;;;32.60;15.05;;;;;;;;;;5062205;28;20043;-59
2021/06/25 08:53:52;;;;;;;31.17;15.13;;;;;;;;;;5059042;28;20110;-58
2021/06/25 08:56:19;;;;;;;36.55;14.55;;;;;;;;;;5061861;28;20037;-59
2021/06/25 08:58:47;;;;;;;33.00;14.60;;;;;;;;;;5059080;28;20033;-59
2021/06/25 09:01:15;;;;;;;31.98;16.73;;;;;;;;;;5062792;28;20133;-59
2021/06/25 09:03:42;;;;;;;35.08;16.05;;;;;;;;;;5061936;28;20052;-59
2021/06/25 09:06:10;;;;;;;31.83;15.27;;;;;;;;;;5059774;28;20056;-59
2021/06/25 09:08:37;;;;;;;30.77;14.68;;;;;;;;;;5062733;28;20069;-59
2021/06/25 09:11:18;;;;;;;33.38;15.15;;;;;;;;;;5074308;28;20040;-59
2021/06/25 09:13:45;;;;;;;40.20;15.25;;;;;;;;;;5063935;28;20125;-60
2021/06/25 09:16:24;;;;;;;40.00;15.88;;;;;;;;;;5076400;28;20044;-59
2021/06/25 09:18:57;;;;;;;34.28;14.90;;;;;;;;;;5061785;28;20052;-59
2021/06/25 09:21:23;;;;;;;36.55;15.40;;;;;;;;;;5044980;28;20041;-60
2021/06/25 09:23:50;;;;;;;32.47;14.88;;;;;;;;;;5042662;28;20037;-59
2021/06/25 09:26:20;;;;;;;33.63;15.05;;;;;;;;;;5054275;28;20063;-59
2021/06/25 09:28:47;;;;;;;33.22;15.18;;;;;;;;;;5063507;28;20036;-60
2021/06/25 09:31:15;;;;;;;32.92;15.25;;;;;;;;;;5059292;28;20073;-59
2021/06/25 09:33:47;;;;;;;29.25;14.52;;;;;;;;;;5061222;28;20037;-59
2021/06/25 09:36:21;;;;;;;33.75;15.40;;;;;;;;;;5057606;28;20037;-59
2021/06/25 09:38:48;;;;;;;32.65;15.25;;;;;;;;;;5060185;28;20037;-59
2021/06/25 09:41:18;;;;;;;34.60;15.55;;;;;;;;;;5057900;28;20098;-58
2021/06/25 09:43:53;;;;;;;32.53;15.13;;;;;;;;;;5060151;28;20047;-59
2021/06/25 09:46:24;;;;;;;39.95;14.45;;;;;;;;;;5052223;28;20045;-60
2021/06/25 09:48:53;;;;;;;31.05;14.52;;;;;;;;;;5057107;28;20162;-59
2021/06/25 09:51:21;;;;;;;32.22;14.95;;;;;;;;;;5039348;28;20033;-59
2021/06/25 09:54:07;;;;;;;35.47;15.07;;;;;;;;;;5041046;28;20087;-59
2021/06/25 09:56:36;;;;;;;29.33;14.02;;;;;;;;;;5042633;28;20045;-59
2021/06/25 09:59:25;;;;;;;32.30;15.10;;;;;;;;;;5060144;28;20033;-59
2021/06/25 10:01:53;;;;;;;33.05;13.60;;;;;;;;;;5057123;28;20052;-59
2021/06/25 10:04:39;;;;;;;31.25;14.32;;;;;;;;;;5059814;28;20049;-59
2021/06/25 10:07:12;;;;;;;27.23;13.88;;;;;;;;;;5057324;28;20057;-58
2021/06/25 10:09:39;;;;;;;29.58;14.15;;;;;;;;;;5061793;28;20041;-59
2021/06/25 10:12:07;;;;;;;24.48;14.02;;;;;;;;;;5058690;28;20067;-59
2021/06/25 10:14:34;;;;;;;39.17;14.30;;;;;;;;;;5062488;28;20041;-59
2021/06/25 10:17:01;;;;;;;30.13;14.00;;;;;;;;;;5057810;28;20044;-59
2021/06/25 10:19:28;;;;;;;34.42;14.35;;;;;;;;;;5060501;28;20102;-59
2021/06/25 10:21:57;;;;;;;26.60;13.52;;;;;;;;;;5062111;28;20052;-60
2021/06/25 10:24:23;;;;;;;27.60;14.02;;;;;;;;;;5058077;28;20048;-59
2021/06/25 10:26:50;;;;;;;31.30;14.38;;;;;;;;;;5060488;28;20048;-59
2021/06/25 10:29:17;;;;;;;27.33;14.02;;;;;;;;;;5048934;28;20037;-59
2021/06/25 10:31:44;;;;;;;25.70;13.90;;;;;;;;;;5041242;28;20033;-59
2021/06/25 10:34:10;;;;;;;24.58;12.70;;;;;;;;;;5053672;28;20033;-59
2021/06/25 10:36:37;;;;;;;30.10;14.52;;;;;;;;;;5059937;28;20092;-59
2021/06/25 10:39:06;;;;;;;31.55;14.55;;;;;;;;;;5055949;28;20041;-59
2021/06/25 10:41:47;;;;;;;29.63;15.05;;;;;;;;;;5046206;28;20060;-59
2021/06/25 10:44:34;;;;;;;32.17;14.70;;;;;;;;;;5057454;28;20044;-59
2021/06/25 10:47:13;;;;;;;25.37;13.33;;;;;;;;;;5062881;28;20108;-59
2021/06/25 10:49:57;;;;;;;28.38;12.57;;;;;;;;;;5047731;28;20040;-60
2021/06/25 10:52:23;;;;;;;28.45;14.00;;;;;;;;;;5048695;28;20167;-59
2021/06/25 10:55:01;;;;;;;31.38;13.45;;;;;;;;;;5041823;28;20045;-60
2021/06/25 10:57:28;;;;;;;28.85;14.02;;;;;;;;;;5064172;28;20122;-59
2021/06/25 10:59:54;;;;;;;27.13;13.07;;;;;;;;;;5034289;28;20107;-59
2021/06/25 11:02:40;;;;;;;32.03;15.32;;;;;;;;;;5042684;28;20040;-59
2021/06/25 11:05:27;;;;;;;30.00;14.73;;;;;;;;;;5041392;28;20029;-59
2021/06/25 11:07:55;;;;;;;36.45;15.52;;;;;;;;;;5044311;28;20052;-59
2021/06/25 11:10:23;;;;;;;28.80;15.02;;;;;;;;;;5039879;28;20048;-59
2021/06/25 11:12:51;;;;;;;28.60;15.50;;;;;;;;;;5043210;28;20061;-59
2021/06/25 11:15:33;;;;;;;30.48;14.40;;;;;;;;;;5040808;28;20033;-59
2021/06/25 11:18:01;;;;;;;23.75;12.93;;;;;;;;;;5043999;28;20300;-60
2021/06/25 11:20:29;;;;;;;29.03;13.87;;;;;;;;;;5038476;28;20051;-60
2021/06/25 11:23:02;;;;;;;29.63;13.73;;;;;;;;;;5042834;28;20190;-60
2021/06/25 11:25:37;;;;;;;28.08;13.68;;;;;;;;;;5053342;28;20059;-59
2021/06/25 11:28:19;;;;;;;32.28;15.23;;;;;;;;;;5040873;28;20089;-59
2021/06/25 11:31:04;;;;;;;26.75;13.85;;;;;;;;;;5035904;28;20052;-60
2021/06/25 11:33:32;;;;;;;25.70;13.02;;;;;;;;;;5043376;28;20043;-60
2021/06/25 11:36:19;;;;;;;28.15;13.55;;;;;;;;;;5040604;28;20061;-60
2021/06/25 11:38:54;;;;;;;34.63;13.48;;;;;;;;;;5044108;28;20045;-59
2021/06/25 11:41:21;;;;;;;22.25;11.88;;;;;;;;;;5056417;28;20048;-60
2021/06/25 11:43:48;;;;;;;22.50;11.35;;;;;;;;;;5043397;28;20036;-60
2021/06/25 11:46:15;;;;;;;24.55;9.70;;;;;;;;;;5039114;28;20045;-60
2021/06/25 11:48:42;;;;;;;20.98;9.30;;;;;;;;;;5042582;28;20060;-59
2021/06/25 11:51:08;;;;;;;20.35;8.75;;;;;;;;;;5040860;28;20089;-60
2021/06/25 11:53:36;;;;;;;20.33;8.70;;;;;;;;;;5033335;28;20060;-60
2021/06/25 11:56:04;;;;;;;16.52;7.85;;;;;;;;;;5040056;28;20044;-59
2021/06/25 11:58:30;;;;;;;20.85;8.95;;;;;;;;;;5060596;28;20049;-59
2021/06/25 12:01:05;;;;;;;20.63;8.82;;;;;;;;;;5059600;28;20041;-60
2021/06/25 12:03:43;;;;;;;16.85;7.95;;;;;;;;;;5058988;28;20040;-60
2021/06/25 12:06:10;;;;;;;20.63;8.23;;;;;;;;;;5058798;28;20041;-60
2021/06/25 12:08:50;;;;;;;18.90;8.57;;;;;;;;;;5042892;28;20142;-59
2021/06/25 12:11:18;;;;;;;21.80;9.52;;;;;;;;;;5077398;28;20040;-60
2021/06/25 12:13:54;;;;;;;14.98;7.47;;;;;;;;;;5060255;28;20051;-60
2021/06/25 12:16:21;;;;;;;17.88;7.93;;;;;;;;;;5061349;28;20028;-59
2021/06/25 12:18:47;;;;;;;18.15;8.85;;;;;;;;;;5040640;28;20048;-59
2021/06/25 12:21:19;;;;;;;18.23;8.82;;;;;;;;;;5039154;28;20041;-59
2021/06/25 12:23:49;;;;;;;19.60;8.77;;;;;;;;;;5037059;28;20059;-59
2021/06/25 12:26:18;;;;;;;21.23;9.65;;;;;;;;;;5042234;28;20049;-60
2021/06/25 12:28:47;;;;;;;15.43;8.32;;;;;;;;;;5036637;28;20041;-60
2021/06/25 12:31:17;;;;;;;20.70;9.45;;;;;;;;;;5031651;28;20119;-60
2021/06/25 12:33:44;;;;;;;18.30;8.45;;;;;;;;;;5050953;28;20069;-60
2021/06/25 12:36:12;;;;;;;21.30;8.32;;;;;;;;;;5060986;28;20033;-60
2021/06/25 12:38:39;;;;;;;;;;;;;;;;;;5038596;28;20049;-59
2021/06/25 12:41:07;;;;;;;17.20;8.10;;;;;;;;;;5038616;28;19952;-59
2021/06/25 12:43:34;;;;;;;15.93;7.10;;;;;;;;;;5052428;28;20045;-61
2021/06/25 12:46:06;;;;;;;14.88;7.25;;;;;;;;;;5040232;28;20045;-60
2021/06/25 12:48:33;;;;;;;14.68;7.07;;;;;;;;;;5042263;28;20053;-60
2021/06/25 12:51:01;;;;;;;15.60;7.22;;;;;;;;;;5060928;28;20037;-60
2021/06/25 12:53:29;;;;;;;17.20;7.30;;;;;;;;;;5052428;28;20126;-60
2021/06/25 12:55:56;;;;;;;;;;;;;;;;;;5039555;28;20091;-60
2021/06/25 12:58:22;;;;;;;12.38;5.65;;;;;;;;;;5035076;28;20006;-60
2021/06/25 13:00:53;;;;;;;13.50;7.05;;;;;;;;;;5040811;28;20048;-59
2021/06/25 13:03:22;;;;;;;20.13;7.28;;;;;;;;;;5039949;28;20061;-60
2021/06/25 13:05:48;;;;;;;;;;;;;;;;;;5035549;28;20045;-60
2021/06/25 13:08:20;;;;;;;19.40;7.63;;;;;;;;;;5040942;28;19928;-60
2021/06/25 13:10:47;;;;;;;12.75;7.22;;;;;;;;;;5057777;28;20052;-60
2021/06/25 13:13:25;;;;;;;13.93;7.63;;;;;;;;;;5062406;28;20052;-59
2021/06/25 13:15:53;;;;;;;15.07;6.93;;;;;;;;;;5053089;28;20089;-60
2021/06/25 13:18:29;;;;;;;12.73;6.70;;;;;;;;;;5042718;28;20056;-60
2021/06/25 13:21:23;;;;;;;15.60;6.68;;;;;;;;;;5037819;28;20057;-59
2021/06/25 13:23:52;;;;;;;15.32;6.30;;;;;;;;;;5041942;28;20053;-60
2021/06/25 13:26:22;;;;;;;15.20;7.30;;;;;;;;;;5051027;28;20045;-60
2021/06/25 13:28:55;;;;;;;13.40;6.88;;;;;;;;;;5041295;28;20038;-60
2021/06/25 13:31:21;;;;;;;16.17;6.90;;;;;;;;;;5053818;28;20134;-60
2021/06/25 13:33:50;;;;;;;18.25;7.45;;;;;;;;;;5063160;28;20036;-60
2021/06/25 13:36:16;;;;;;;;;;;;;;;;;;5058511;28;20049;-60
2021/06/25 13:38:43;;;;;;;15.48;6.65;;;;;;;;;;5062463;28;19940;-60
2021/06/25 13:41:19;;;;;;;13.15;6.38;;;;;;;;;;5057682;28;20096;-60
2021/06/25 13:43:50;;;;;;;17.33;7.10;;;;;;;;;;5060561;28;20040;-60
2021/06/25 13:46:18;;;;;;;13.85;6.85;;;;;;;;;;5057672;28;20049;-60
2021/06/25 13:48:45;;;;;;;15.90;7.10;;;;;;;;;;5062401;28;20073;-59
2021/06/25 13:51:13;;;;;;;14.25;7.03;;;;;;;;;;5049894;28;20041;-59
2021/06/25 13:53:41;;;;;;;13.52;7.28;;;;;;;;;;5043712;28;20122;-60
2021/06/25 13:56:15;;;;;;;16.58;7.63;;;;;;;;;;5037928;28;20045;-59
2021/06/25 13:58:54;;;;;;;12.80;7.07;;;;;;;;;;5043801;28;20034;-59
2021/06/25 14:01:22;;;;;;;12.55;6.50;;;;;;;;;;5042874;28;20105;-59
2021/06/25 14:03:48;;;;;;;;;;;;;;;;;;5064189;28;20045;-60
2021/06/25 14:06:17;;;;;;;16.80;7.72;;;;;;;;;;5053501;28;19957;-60
2021/06/25 14:08:44;;;;;;;15.35;8.02;;;;;;;;;;5044048;28;20041;-59
2021/06/25 14:11:12;;;;;;;17.65;8.52;;;;;;;;;;5056756;28;20041;-60
2021/06/25 14:13:41;;;;;;;14.20;8.43;;;;;;;;;;5043351;28;20077;-60
2021/06/25 14:16:18;;;;;;;16.20;8.57;;;;;;;;;;5041442;28;20074;-59
2021/06/25 14:18:44;;;;;;;17.08;8.13;;;;;;;;;;5041474;28;20033;-60
2021/06/25 14:21:11;;;;;;;15.07;8.00;;;;;;;;;;5041825;28;20041;-59
2021/06/25 14:23:39;;;;;;;16.17;8.18;;;;;;;;;;5055048;28;20037;-60
2021/06/25 14:26:06;;;;;;;18.88;8.13;;;;;;;;;;5045244;28;20045;-60
2021/06/25 14:28:33;;;;;;;14.63;8.15;;;;;;;;;;5031288;28;20040;-59
2021/06/25 14:30:59;;;;;;;18.30;8.15;;;;;;;;;;5041812;28;20049;-60
2021/06/25 14:33:26;;;;;;;21.92;9.07;;;;;;;;;;5052233;28;20075;-60
2021/06/25 14:35:53;;;;;;;18.98;8.55;;;;;;;;;;5060330;28;20044;-59
2021/06/25 14:38:19;;;;;;;14.20;7.47;;;;;;;;;;5046228;28;20041;-60
2021/06/25 14:40:47;;;;;;;20.63;8.35;;;;;;;;;;5041187;28;20041;-60
2021/06/25 14:43:14;;;;;;;14.90;7.43;;;;;;;;;;5046598;28;20052;-59
2021/06/25 14:45:41;;;;;;;19.15;7.35;;;;;;;;;;5061717;28;20052;-59
2021/06/25 14:48:08;;;;;;;16.88;7.70;;;;;;;;;;5050082;28;20111;-59
2021/06/25 14:50:35;;;;;;;13.32;7.35;;;;;;;;;;5041091;28;20081;-59
2021/06/25 14:53:01;;;;;;;14.48;7.47;;;;;;;;;;5039161;28;20181;-59
2021/06/25 14:55:30;;;;;;;19.50;7.88;;;;;;;;;;5047438;28;20081;-59
2021/06/25 14:57:58;;;;;;;14.18;7.60;;;;;;;;;;5038052;28;20072;-59
2021/06/25 15:00:25;;;;;;;14.23;7.03;;;;;;;;;;5039235;28;20041;-59